sensor_id;sensor_type;location;lat;lon;timestamp;P1;durP1;ratioP1;P2;durP2;ratioP2
20423;SDS011;10371;49.042;8.002;2022-08-03T00:00:52;2.95;;;2.78;;
20423;SDS011;10371;49.042;8.002;2022-08-03T00:01:53;3.45;;;3.15;;
20423;SDS011;10371;49.042;8.002;2022-08-03T00:02:53;3.20;;;3.00;;
20423;SDS011;10371;49.042;8.002;2022-08-03T00:03:54;3.30;;;3.00;;
20423;SDS011;10371;49.042;8.002;2022-08-03T00:04:54;3.20;;;3.00;;
20423;SDS011;10371;49.042;8.002;2022-08-03T00:05:54;3.00;;;2.80;;
20423;SDS011;10371;49.042;8.002;2022-08-03T00:06:55;4.13;;;2.97;;
20423;SDS011;10371;49.042;8.002;2022-08-03T00:07:55;3.22;;;3.03;;
20423;SDS011;10371;49.042;8.002;2022-08-03T00:08:55;3.00;;;2.80;;
20423;SDS011;10371;49.042;8.002;2022-08-03T00:09:56;3.30;;;3.10;;
20423;SDS011;10371;49.042;8.002;2022-08-03T00:10:56;3.90;;;2.85;;
20423;SDS011;10371;49.042;8.002;2022-08-03T00:11:56;4.63;;;2.95;;
20423;SDS011;10371;49.042;8.002;2022-08-03T00:12:57;3.03;;;2.83;;
20423;SDS011;10371;49.042;8.002;2022-08-03T00:13:57;3.20;;;3.00;;
20423;SDS011;10371;49.042;8.002;2022-08-03T00:14:57;3.25;;;3.05;;
20423;SDS011;10371;49.042;8.002;2022-08-03T00:15:58;3.30;;;3.10;;
20423;SDS011;10371;49.042;8.002;2022-08-03T00:16:58;3.00;;;2.80;;
20423;SDS011;10371;49.042;8.002;2022-08-03T00:17:58;3.55;;;3.33;;
20423;SDS011;10371;49.042;8.002;2022-08-03T00:18:59;3.17;;;2.97;;
20423;SDS011;10371;49.042;8.002;2022-08-03T00:20:00;3.20;;;2.90;;
20423;SDS011;10371;49.042;8.002;2022-08-03T00:21:00;3.35;;;3.10;;
20423;SDS011;10371;49.042;8.002;2022-08-03T00:22:01;3.70;;;3.40;;
20423;SDS011;10371;49.042;8.002;2022-08-03T00:23:02;3.22;;;3.03;;
20423;SDS011;10371;49.042;8.002;2022-08-03T00:24:03;3.25;;;3.05;;
20423;SDS011;10371;49.042;8.002;2022-08-03T00:25:04;3.30;;;3.10;;
20423;SDS011;10371;49.042;8.002;2022-08-03T00:26:05;3.38;;;3.08;;
20423;SDS011;10371;49.042;8.002;2022-08-03T00:27:05;3.10;;;2.90;;
20423;SDS011;10371;49.042;8.002;2022-08-03T00:28:05;3.10;;;2.85;;
20423;SDS011;10371;49.042;8.002;2022-08-03T00:29:06;3.47;;;2.78;;
20423;SDS011;10371;49.042;8.002;2022-08-03T00:30:06;3.10;;;2.90;;
20423;SDS011;10371;49.042;8.002;2022-08-03T00:31:07;3.08;;;2.88;;
20423;SDS011;10371;49.042;8.002;2022-08-03T00:32:07;2.85;;;2.70;;
20423;SDS011;10371;49.042;8.002;2022-08-03T00:33:07;2.92;;;2.72;;
20423;SDS011;10371;49.042;8.002;2022-08-03T00:34:09;3.20;;;3.00;;
20423;SDS011;10371;49.042;8.002;2022-08-03T00:35:09;2.75;;;2.55;;
20423;SDS011;10371;49.042;8.002;2022-08-03T00:36:10;3.33;;;3.03;;
20423;SDS011;10371;49.042;8.002;2022-08-03T00:37:11;3.17;;;2.97;;
20423;SDS011;10371;49.042;8.002;2022-08-03T00:38:11;3.20;;;3.00;;
20423;SDS011;10371;49.042;8.002;2022-08-03T00:39:11;3.20;;;3.00;;
20423;SDS011;10371;49.042;8.002;2022-08-03T00:40:12;3.17;;;2.88;;
20423;SDS011;10371;49.042;8.002;2022-08-03T00:41:14;3.53;;;3.22;;
20423;SDS011;10371;49.042;8.002;2022-08-03T00:42:14;3.40;;;3.10;;
20423;SDS011;10371;49.042;8.002;2022-08-03T00:43:15;3.42;;;3.13;;
20423;SDS011;10371;49.042;8.002;2022-08-03T00:44:15;3.08;;;2.88;;
20423;SDS011;10371;49.042;8.002;2022-08-03T00:45:16;3.10;;;2.90;;
20423;SDS011;10371;49.042;8.002;2022-08-03T00:46:17;3.20;;;3.00;;
20423;SDS011;10371;49.042;8.002;2022-08-03T00:47:17;2.90;;;2.70;;
20423;SDS011;10371;49.042;8.002;2022-08-03T00:48:18;2.92;;;2.72;;
20423;SDS011;10371;49.042;8.002;2022-08-03T00:49:18;3.30;;;3.10;;
20423;SDS011;10371;49.042;8.002;2022-08-03T00:50:18;3.00;;;2.80;;
20423;SDS011;10371;49.042;8.002;2022-08-03T00:51:21;3.10;;;2.90;;
20423;SDS011;10371;49.042;8.002;2022-08-03T00:52:22;3.20;;;2.90;;
20423;SDS011;10371;49.042;8.002;2022-08-03T00:53:23;3.42;;;3.00;;
20423;SDS011;10371;49.042;8.002;2022-08-03T00:54:24;3.30;;;3.10;;
20423;SDS011;10371;49.042;8.002;2022-08-03T00:55:24;3.33;;;3.03;;
20423;SDS011;10371;49.042;8.002;2022-08-03T00:56:25;3.22;;;3.03;;
20423;SDS011;10371;49.042;8.002;2022-08-03T00:57:26;3.50;;;2.75;;
20423;SDS011;10371;49.042;8.002;2022-08-03T00:58:29;3.33;;;3.13;;
20423;SDS011;10371;49.042;8.002;2022-08-03T00:59:29;3.20;;;2.90;;
20423;SDS011;10371;49.042;8.002;2022-08-03T01:00:30;2.85;;;2.65;;
20423;SDS011;10371;49.042;8.002;2022-08-03T01:01:30;3.25;;;2.95;;
20423;SDS011;10371;49.042;8.002;2022-08-03T01:02:31;3.45;;;3.13;;
20423;SDS011;10371;49.042;8.002;2022-08-03T01:03:32;3.03;;;2.83;;
20423;SDS011;10371;49.042;8.002;2022-08-03T01:04:32;3.17;;;2.88;;
20423;SDS011;10371;49.042;8.002;2022-08-03T01:07:02;3.30;;;3.10;;
20423;SDS011;10371;49.042;8.002;2022-08-03T01:09:40;3.15;;;2.95;;
20423;SDS011;10371;49.042;8.002;2022-08-03T01:10:52;3.75;;;3.25;;
20423;SDS011;10371;49.042;8.002;2022-08-03T01:13:26;3.85;;;3.15;;
20423;SDS011;10371;49.042;8.002;2022-08-03T01:14:57;2.95;;;2.78;;
20423;SDS011;10371;49.042;8.002;2022-08-03T01:16:16;3.08;;;2.88;;
20423;SDS011;10371;49.042;8.002;2022-08-03T01:17:23;3.10;;;2.90;;
20423;SDS011;10371;49.042;8.002;2022-08-03T01:19:40;2.80;;;2.70;;
20423;SDS011;10371;49.042;8.002;2022-08-03T01:20:50;3.17;;;2.97;;
20423;SDS011;10371;49.042;8.002;2022-08-03T01:23:33;3.30;;;3.10;;
20423;SDS011;10371;49.042;8.002;2022-08-03T01:27:25;3.72;;;3.42;;
20423;SDS011;10371;49.042;8.002;2022-08-03T01:29:58;3.40;;;3.20;;
20423;SDS011;10371;49.042;8.002;2022-08-03T01:31:00;3.63;;;3.42;;
20423;SDS011;10371;49.042;8.002;2022-08-03T01:32:10;3.25;;;3.03;;
20423;SDS011;10371;49.042;8.002;2022-08-03T01:33:19;3.38;;;3.17;;
20423;SDS011;10371;49.042;8.002;2022-08-03T01:34:25;3.65;;;3.35;;
20423;SDS011;10371;49.042;8.002;2022-08-03T01:35:43;3.53;;;3.33;;
20423;SDS011;10371;49.042;8.002;2022-08-03T01:36:48;3.35;;;3.15;;
20423;SDS011;10371;49.042;8.002;2022-08-03T01:37:56;3.38;;;3.17;;
20423;SDS011;10371;49.042;8.002;2022-08-03T01:39:03;3.65;;;3.38;;
20423;SDS011;10371;49.042;8.002;2022-08-03T01:40:08;3.05;;;2.85;;
20423;SDS011;10371;49.042;8.002;2022-08-03T01:41:23;3.28;;;2.97;;
20423;SDS011;10371;49.042;8.002;2022-08-03T01:42:28;3.20;;;3.00;;
20423;SDS011;10371;49.042;8.002;2022-08-03T01:43:30;3.45;;;3.25;;
20423;SDS011;10371;49.042;8.002;2022-08-03T01:44:33;3.20;;;3.00;;
20423;SDS011;10371;49.042;8.002;2022-08-03T01:45:37;3.20;;;3.00;;
20423;SDS011;10371;49.042;8.002;2022-08-03T01:46:38;3.22;;;3.03;;
20423;SDS011;10371;49.042;8.002;2022-08-03T01:47:40;3.03;;;2.83;;
20423;SDS011;10371;49.042;8.002;2022-08-03T01:48:43;3.30;;;3.10;;
20423;SDS011;10371;49.042;8.002;2022-08-03T01:49:46;3.30;;;3.10;;
20423;SDS011;10371;49.042;8.002;2022-08-03T01:50:49;3.20;;;2.90;;
20423;SDS011;10371;49.042;8.002;2022-08-03T01:51:50;3.30;;;3.00;;
20423;SDS011;10371;49.042;8.002;2022-08-03T01:52:52;3.28;;;3.08;;
20423;SDS011;10371;49.042;8.002;2022-08-03T01:53:53;3.33;;;3.00;;
20423;SDS011;10371;49.042;8.002;2022-08-03T01:54:55;3.10;;;2.90;;
20423;SDS011;10371;49.042;8.002;2022-08-03T01:55:57;3.00;;;2.80;;
20423;SDS011;10371;49.042;8.002;2022-08-03T01:57:01;3.70;;;3.33;;
20423;SDS011;10371;49.042;8.002;2022-08-03T01:58:03;3.20;;;3.00;;
20423;SDS011;10371;49.042;8.002;2022-08-03T01:59:04;2.80;;;2.60;;
20423;SDS011;10371;49.042;8.002;2022-08-03T02:00:07;3.10;;;2.90;;
20423;SDS011;10371;49.042;8.002;2022-08-03T02:01:11;3.30;;;3.10;;
20423;SDS011;10371;49.042;8.002;2022-08-03T02:02:15;2.80;;;2.60;;
20423;SDS011;10371;49.042;8.002;2022-08-03T02:03:16;3.22;;;3.03;;
20423;SDS011;10371;49.042;8.002;2022-08-03T02:04:19;3.40;;;3.15;;
20423;SDS011;10371;49.042;8.002;2022-08-03T02:05:21;2.80;;;2.60;;
20423;SDS011;10371;49.042;8.002;2022-08-03T02:06:22;3.08;;;2.88;;
20423;SDS011;10371;49.042;8.002;2022-08-03T02:07:24;3.08;;;2.88;;
20423;SDS011;10371;49.042;8.002;2022-08-03T02:08:27;3.10;;;2.90;;
20423;SDS011;10371;49.042;8.002;2022-08-03T02:09:31;3.20;;;3.00;;
20423;SDS011;10371;49.042;8.002;2022-08-03T02:10:33;3.10;;;2.90;;
20423;SDS011;10371;49.042;8.002;2022-08-03T02:11:35;3.40;;;3.20;;
20423;SDS011;10371;49.042;8.002;2022-08-03T02:12:36;3.22;;;3.03;;
20423;SDS011;10371;49.042;8.002;2022-08-03T02:13:38;3.35;;;3.05;;
20423;SDS011;10371;49.042;8.002;2022-08-03T02:14:39;3.45;;;3.25;;
20423;SDS011;10371;49.042;8.002;2022-08-03T02:15:42;3.38;;;3.17;;
20423;SDS011;10371;49.042;8.002;2022-08-03T02:16:43;3.05;;;2.85;;
20423;SDS011;10371;49.042;8.002;2022-08-03T02:17:46;4.00;;;3.70;;
20423;SDS011;10371;49.042;8.002;2022-08-03T02:18:47;3.47;;;3.17;;
20423;SDS011;10371;49.042;8.002;2022-08-03T02:19:47;3.58;;;3.38;;
20423;SDS011;10371;49.042;8.002;2022-08-03T02:20:50;3.30;;;3.10;;
20423;SDS011;10371;49.042;8.002;2022-08-03T02:21:51;3.20;;;3.00;;
20423;SDS011;10371;49.042;8.002;2022-08-03T02:22:52;3.63;;;3.33;;
20423;SDS011;10371;49.042;8.002;2022-08-03T02:23:53;3.40;;;3.13;;
20423;SDS011;10371;49.042;8.002;2022-08-03T02:24:53;4.03;;;3.67;;
20423;SDS011;10371;49.042;8.002;2022-08-03T02:25:56;3.42;;;3.13;;
20423;SDS011;10371;49.042;8.002;2022-08-03T02:26:58;3.60;;;3.30;;
20423;SDS011;10371;49.042;8.002;2022-08-03T02:28:34;3.42;;;3.22;;
20423;SDS011;10371;49.042;8.002;2022-08-03T02:29:32;3.60;;;3.40;;
20423;SDS011;10371;49.042;8.002;2022-08-03T02:30:36;3.40;;;3.10;;
20423;SDS011;10371;49.042;8.002;2022-08-03T02:31:39;3.55;;;3.35;;
20423;SDS011;10371;49.042;8.002;2022-08-03T02:32:43;3.22;;;3.03;;
20423;SDS011;10371;49.042;8.002;2022-08-03T02:33:51;3.40;;;3.20;;
20423;SDS011;10371;49.042;8.002;2022-08-03T02:34:55;3.38;;;3.10;;
20423;SDS011;10371;49.042;8.002;2022-08-03T02:35:59;3.47;;;3.28;;
20423;SDS011;10371;49.042;8.002;2022-08-03T02:37:01;3.42;;;3.22;;
20423;SDS011;10371;49.042;8.002;2022-08-03T02:38:04;3.38;;;3.10;;
20423;SDS011;10371;49.042;8.002;2022-08-03T02:39:09;3.50;;;3.30;;
20423;SDS011;10371;49.042;8.002;2022-08-03T02:40:10;3.90;;;3.60;;
20423;SDS011;10371;49.042;8.002;2022-08-03T02:41:14;3.75;;;3.38;;
20423;SDS011;10371;49.042;8.002;2022-08-03T02:42:16;3.53;;;3.30;;
20423;SDS011;10371;49.042;8.002;2022-08-03T02:43:22;3.72;;;3.42;;
20423;SDS011;10371;49.042;8.002;2022-08-03T02:44:24;3.75;;;3.45;;
20423;SDS011;10371;49.042;8.002;2022-08-03T02:45:26;3.83;;;3.53;;
20423;SDS011;10371;49.042;8.002;2022-08-03T02:46:29;3.35;;;3.15;;
20423;SDS011;10371;49.042;8.002;2022-08-03T02:47:32;3.80;;;3.50;;
20423;SDS011;10371;49.042;8.002;2022-08-03T02:48:35;3.33;;;3.10;;
20423;SDS011;10371;49.042;8.002;2022-08-03T02:49:37;3.42;;;3.13;;
20423;SDS011;10371;49.042;8.002;2022-08-03T02:50:39;3.17;;;2.97;;
20423;SDS011;10371;49.042;8.002;2022-08-03T02:51:43;3.53;;;3.33;;
20423;SDS011;10371;49.042;8.002;2022-08-03T02:52:46;3.60;;;3.30;;
20423;SDS011;10371;49.042;8.002;2022-08-03T02:53:48;3.38;;;3.17;;
20423;SDS011;10371;49.042;8.002;2022-08-03T02:54:50;3.60;;;3.30;;
20423;SDS011;10371;49.042;8.002;2022-08-03T02:55:52;3.45;;;3.15;;
20423;SDS011;10371;49.042;8.002;2022-08-03T02:56:55;3.30;;;3.10;;
20423;SDS011;10371;49.042;8.002;2022-08-03T02:57:57;3.33;;;3.13;;
20423;SDS011;10371;49.042;8.002;2022-08-03T02:58:58;3.65;;;3.30;;
20423;SDS011;10371;49.042;8.002;2022-08-03T02:59:59;3.42;;;3.22;;
20423;SDS011;10371;49.042;8.002;2022-08-03T03:01:00;3.47;;;3.28;;
20423;SDS011;10371;49.042;8.002;2022-08-03T03:02:02;3.22;;;3.03;;
20423;SDS011;10371;49.042;8.002;2022-08-03T03:03:03;3.58;;;3.38;;
20423;SDS011;10371;49.042;8.002;2022-08-03T03:04:05;3.70;;;3.40;;
20423;SDS011;10371;49.042;8.002;2022-08-03T03:05:06;3.25;;;3.05;;
20423;SDS011;10371;49.042;8.002;2022-08-03T03:06:08;3.50;;;3.20;;
20423;SDS011;10371;49.042;8.002;2022-08-03T03:07:11;3.30;;;3.10;;
20423;SDS011;10371;49.042;8.002;2022-08-03T03:08:19;3.33;;;3.13;;
20423;SDS011;10371;49.042;8.002;2022-08-03T03:09:21;3.55;;;3.25;;
20423;SDS011;10371;49.042;8.002;2022-08-03T03:10:21;3.95;;;3.63;;
20423;SDS011;10371;49.042;8.002;2022-08-03T03:11:24;3.38;;;3.17;;
20423;SDS011;10371;49.042;8.002;2022-08-03T03:12:25;3.30;;;3.10;;
20423;SDS011;10371;49.042;8.002;2022-08-03T03:13:29;3.72;;;3.42;;
20423;SDS011;10371;49.042;8.002;2022-08-03T03:14:31;3.50;;;3.30;;
20423;SDS011;10371;49.042;8.002;2022-08-03T03:15:33;3.33;;;3.03;;
20423;SDS011;10371;49.042;8.002;2022-08-03T03:16:36;3.50;;;3.30;;
20423;SDS011;10371;49.042;8.002;2022-08-03T03:17:37;3.72;;;3.53;;
20423;SDS011;10371;49.042;8.002;2022-08-03T03:18:38;3.55;;;3.25;;
20423;SDS011;10371;49.042;8.002;2022-08-03T03:19:39;3.58;;;3.30;;
20423;SDS011;10371;49.042;8.002;2022-08-03T03:20:40;3.53;;;3.33;;
20423;SDS011;10371;49.042;8.002;2022-08-03T03:21:41;3.40;;;3.10;;
20423;SDS011;10371;49.042;8.002;2022-08-03T03:22:43;3.60;;;3.40;;
20423;SDS011;10371;49.042;8.002;2022-08-03T03:23:46;3.92;;;3.63;;
20423;SDS011;10371;49.042;8.002;2022-08-03T03:24:47;3.50;;;3.30;;
20423;SDS011;10371;49.042;8.002;2022-08-03T03:25:50;3.25;;;3.05;;
20423;SDS011;10371;49.042;8.002;2022-08-03T03:26:51;3.72;;;3.42;;
20423;SDS011;10371;49.042;8.002;2022-08-03T03:27:52;3.47;;;3.28;;
20423;SDS011;10371;49.042;8.002;2022-08-03T03:28:53;4.03;;;3.55;;
20423;SDS011;10371;49.042;8.002;2022-08-03T03:29:54;3.70;;;3.40;;
20423;SDS011;10371;49.042;8.002;2022-08-03T03:30:57;3.22;;;3.03;;
20423;SDS011;10371;49.042;8.002;2022-08-03T03:31:58;3.25;;;3.05;;
20423;SDS011;10371;49.042;8.002;2022-08-03T03:33:00;3.65;;;3.42;;
20423;SDS011;10371;49.042;8.002;2022-08-03T03:34:01;3.80;;;3.60;;
20423;SDS011;10371;49.042;8.002;2022-08-03T03:35:03;3.67;;;3.47;;
20423;SDS011;10371;49.042;8.002;2022-08-03T03:36:04;3.72;;;3.42;;
20423;SDS011;10371;49.042;8.002;2022-08-03T03:37:06;3.50;;;3.20;;
20423;SDS011;10371;49.042;8.002;2022-08-03T03:38:06;3.25;;;3.00;;
20423;SDS011;10371;49.042;8.002;2022-08-03T03:39:06;4.53;;;4.10;;
20423;SDS011;10371;49.042;8.002;2022-08-03T03:40:06;3.63;;;3.33;;
20423;SDS011;10371;49.042;8.002;2022-08-03T03:41:08;3.72;;;3.50;;
20423;SDS011;10371;49.042;8.002;2022-08-03T03:42:09;4.18;;;3.72;;
20423;SDS011;10371;49.042;8.002;2022-08-03T03:43:10;3.55;;;3.30;;
20423;SDS011;10371;49.042;8.002;2022-08-03T03:44:11;3.80;;;3.50;;
20423;SDS011;10371;49.042;8.002;2022-08-03T03:45:11;3.38;;;3.17;;
20423;SDS011;10371;49.042;8.002;2022-08-03T03:46:12;3.70;;;3.42;;
20423;SDS011;10371;49.042;8.002;2022-08-03T03:47:12;3.80;;;3.50;;
20423;SDS011;10371;49.042;8.002;2022-08-03T03:48:13;3.70;;;3.38;;
20423;SDS011;10371;49.042;8.002;2022-08-03T03:49:13;4.97;;;3.40;;
20423;SDS011;10371;49.042;8.002;2022-08-03T03:50:14;3.60;;;3.30;;
20423;SDS011;10371;49.042;8.002;2022-08-03T03:51:16;3.58;;;3.28;;
20423;SDS011;10371;49.042;8.002;2022-08-03T03:52:17;3.92;;;3.30;;
20423;SDS011;10371;49.042;8.002;2022-08-03T03:53:17;7.07;;;3.55;;
20423;SDS011;10371;49.042;8.002;2022-08-03T03:54:18;3.47;;;3.17;;
20423;SDS011;10371;49.042;8.002;2022-08-03T03:55:18;3.63;;;3.30;;
20423;SDS011;10371;49.042;8.002;2022-08-03T03:56:18;4.07;;;3.78;;
20423;SDS011;10371;49.042;8.002;2022-08-03T03:57:19;3.78;;;3.58;;
20423;SDS011;10371;49.042;8.002;2022-08-03T03:58:19;3.90;;;3.60;;
20423;SDS011;10371;49.042;8.002;2022-08-03T03:59:20;3.65;;;3.35;;
20423;SDS011;10371;49.042;8.002;2022-08-03T04:00:20;3.67;;;3.38;;
20423;SDS011;10371;49.042;8.002;2022-08-03T04:01:21;4.03;;;3.70;;
20423;SDS011;10371;49.042;8.002;2022-08-03T04:02:21;3.45;;;3.10;;
20423;SDS011;10371;49.042;8.002;2022-08-03T04:03:22;3.40;;;3.20;;
20423;SDS011;10371;49.042;8.002;2022-08-03T04:04:22;3.63;;;3.42;;
20423;SDS011;10371;49.042;8.002;2022-08-03T04:05:41;3.42;;;3.22;;
20423;SDS011;10371;49.042;8.002;2022-08-03T04:07:00;3.63;;;3.42;;
20423;SDS011;10371;49.042;8.002;2022-08-03T04:08:19;3.55;;;3.35;;
20423;SDS011;10371;49.042;8.002;2022-08-03T04:09:39;4.00;;;3.70;;
20423;SDS011;10371;49.042;8.002;2022-08-03T04:11:10;3.80;;;3.33;;
20423;SDS011;10371;49.042;8.002;2022-08-03T04:12:13;4.28;;;3.88;;
20423;SDS011;10371;49.042;8.002;2022-08-03T04:13:17;3.78;;;3.47;;
20423;SDS011;10371;49.042;8.002;2022-08-03T04:14:34;3.83;;;3.53;;
20423;SDS011;10371;49.042;8.002;2022-08-03T04:15:39;3.83;;;3.53;;
20423;SDS011;10371;49.042;8.002;2022-08-03T04:16:41;3.95;;;3.65;;
20423;SDS011;10371;49.042;8.002;2022-08-03T04:17:45;3.70;;;3.40;;
20423;SDS011;10371;49.042;8.002;2022-08-03T04:18:52;3.72;;;3.42;;
20423;SDS011;10371;49.042;8.002;2022-08-03T04:19:56;3.45;;;3.22;;
20423;SDS011;10371;49.042;8.002;2022-08-03T04:21:00;3.60;;;3.30;;
20423;SDS011;10371;49.042;8.002;2022-08-03T04:22:04;3.40;;;3.10;;
20423;SDS011;10371;49.042;8.002;2022-08-03T04:23:08;4.65;;;3.22;;
20423;SDS011;10371;49.042;8.002;2022-08-03T04:24:10;5.10;;;3.55;;
20423;SDS011;10371;49.042;8.002;2022-08-03T04:25:13;3.35;;;3.15;;
20423;SDS011;10371;49.042;8.002;2022-08-03T04:26:18;3.90;;;3.60;;
20423;SDS011;10371;49.042;8.002;2022-08-03T04:27:21;4.47;;;4.07;;
20423;SDS011;10371;49.042;8.002;2022-08-03T04:28:25;3.65;;;3.45;;
20423;SDS011;10371;49.042;8.002;2022-08-03T04:29:27;3.88;;;3.67;;
20423;SDS011;10371;49.042;8.002;2022-08-03T04:30:30;3.75;;;3.45;;
20423;SDS011;10371;49.042;8.002;2022-08-03T04:31:35;4.00;;;3.70;;
20423;SDS011;10371;49.042;8.002;2022-08-03T04:32:37;4.10;;;3.80;;
20423;SDS011;10371;49.042;8.002;2022-08-03T04:33:38;3.90;;;3.60;;
20423;SDS011;10371;49.042;8.002;2022-08-03T04:34:41;4.55;;;3.65;;
20423;SDS011;10371;49.042;8.002;2022-08-03T04:35:42;3.80;;;3.58;;
20423;SDS011;10371;49.042;8.002;2022-08-03T04:36:47;3.97;;;3.60;;
20423;SDS011;10371;49.042;8.002;2022-08-03T04:37:49;3.75;;;3.45;;
20423;SDS011;10371;49.042;8.002;2022-08-03T04:38:53;3.72;;;3.17;;
20423;SDS011;10371;49.042;8.002;2022-08-03T04:40:24;4.07;;;3.65;;
20423;SDS011;10371;49.042;8.002;2022-08-03T04:41:29;4.90;;;4.00;;
20423;SDS011;10371;49.042;8.002;2022-08-03T04:42:30;4.47;;;3.70;;
20423;SDS011;10371;49.042;8.002;2022-08-03T04:43:32;3.53;;;3.22;;
20423;SDS011;10371;49.042;8.002;2022-08-03T04:44:35;3.63;;;3.33;;
20423;SDS011;10371;49.042;8.002;2022-08-03T04:45:39;3.35;;;3.15;;
20423;SDS011;10371;49.042;8.002;2022-08-03T04:46:40;3.83;;;3.50;;
20423;SDS011;10371;49.042;8.002;2022-08-03T04:47:43;6.38;;;3.92;;
20423;SDS011;10371;49.042;8.002;2022-08-03T04:48:43;4.40;;;3.80;;
20423;SDS011;10371;49.042;8.002;2022-08-03T04:49:45;4.13;;;3.10;;
20423;SDS011;10371;49.042;8.002;2022-08-03T04:50:45;5.15;;;3.47;;
20423;SDS011;10371;49.042;8.002;2022-08-03T04:51:47;3.92;;;3.63;;
20423;SDS011;10371;49.042;8.002;2022-08-03T04:52:48;3.20;;;3.00;;
20423;SDS011;10371;49.042;8.002;2022-08-03T04:53:48;3.35;;;3.15;;
20423;SDS011;10371;49.042;8.002;2022-08-03T04:54:49;3.08;;;2.85;;
20423;SDS011;10371;49.042;8.002;2022-08-03T04:55:50;3.53;;;3.30;;
20423;SDS011;10371;49.042;8.002;2022-08-03T04:56:50;3.58;;;3.28;;
20423;SDS011;10371;49.042;8.002;2022-08-03T04:57:50;3.20;;;3.00;;
20423;SDS011;10371;49.042;8.002;2022-08-03T04:58:50;3.33;;;3.10;;
20423;SDS011;10371;49.042;8.002;2022-08-03T04:59:51;2.85;;;2.65;;
20423;SDS011;10371;49.042;8.002;2022-08-03T05:00:56;3.58;;;3.28;;
20423;SDS011;10371;49.042;8.002;2022-08-03T05:01:56;3.10;;;2.90;;
20423;SDS011;10371;49.042;8.002;2022-08-03T05:02:57;3.42;;;3.22;;
20423;SDS011;10371;49.042;8.002;2022-08-03T05:03:57;3.13;;;2.90;;
20423;SDS011;10371;49.042;8.002;2022-08-03T05:04:58;3.40;;;3.20;;
20423;SDS011;10371;49.042;8.002;2022-08-03T05:05:58;3.20;;;2.95;;
20423;SDS011;10371;49.042;8.002;2022-08-03T05:06:59;3.30;;;3.03;;
20423;SDS011;10371;49.042;8.002;2022-08-03T05:07:59;3.40;;;3.10;;
20423;SDS011;10371;49.042;8.002;2022-08-03T05:08:59;3.20;;;2.90;;
20423;SDS011;10371;49.042;8.002;2022-08-03T05:09:59;3.40;;;3.20;;
20423;SDS011;10371;49.042;8.002;2022-08-03T05:11:00;3.60;;;3.30;;
20423;SDS011;10371;49.042;8.002;2022-08-03T05:12:00;3.25;;;3.05;;
20423;SDS011;10371;49.042;8.002;2022-08-03T05:13:00;3.20;;;3.00;;
20423;SDS011;10371;49.042;8.002;2022-08-03T05:14:00;3.38;;;3.17;;
20423;SDS011;10371;49.042;8.002;2022-08-03T05:15:01;3.28;;;3.08;;
20423;SDS011;10371;49.042;8.002;2022-08-03T05:16:02;2.90;;;2.70;;
20423;SDS011;10371;49.042;8.002;2022-08-03T05:17:06;2.90;;;2.70;;
20423;SDS011;10371;49.042;8.002;2022-08-03T05:18:07;3.42;;;3.22;;
20423;SDS011;10371;49.042;8.002;2022-08-03T05:19:08;3.00;;;2.80;;
20423;SDS011;10371;49.042;8.002;2022-08-03T05:20:08;3.00;;;2.88;;
20423;SDS011;10371;49.042;8.002;2022-08-03T05:21:10;3.08;;;2.88;;
20423;SDS011;10371;49.042;8.002;2022-08-03T05:22:13;2.92;;;2.72;;
20423;SDS011;10371;49.042;8.002;2022-08-03T05:23:13;3.20;;;2.85;;
20423;SDS011;10371;49.042;8.002;2022-08-03T05:24:13;4.32;;;3.40;;
20423;SDS011;10371;49.042;8.002;2022-08-03T05:25:14;3.08;;;2.83;;
20423;SDS011;10371;49.042;8.002;2022-08-03T05:26:14;3.47;;;2.88;;
20423;SDS011;10371;49.042;8.002;2022-08-03T05:27:15;2.70;;;2.50;;
20423;SDS011;10371;49.042;8.002;2022-08-03T05:28:18;3.03;;;2.83;;
20423;SDS011;10371;49.042;8.002;2022-08-03T05:29:18;3.25;;;2.90;;
20423;SDS011;10371;49.042;8.002;2022-08-03T05:30:19;3.25;;;2.95;;
20423;SDS011;10371;49.042;8.002;2022-08-03T05:31:19;3.42;;;3.13;;
20423;SDS011;10371;49.042;8.002;2022-08-03T05:32:19;2.90;;;2.70;;
20423;SDS011;10371;49.042;8.002;2022-08-03T05:33:20;3.63;;;3.20;;
20423;SDS011;10371;49.042;8.002;2022-08-03T05:34:20;2.90;;;2.70;;
20423;SDS011;10371;49.042;8.002;2022-08-03T05:35:20;3.22;;;3.03;;
20423;SDS011;10371;49.042;8.002;2022-08-03T05:36:21;2.95;;;2.70;;
20423;SDS011;10371;49.042;8.002;2022-08-03T05:37:21;4.78;;;3.00;;
20423;SDS011;10371;49.042;8.002;2022-08-03T05:38:22;3.78;;;2.78;;
20423;SDS011;10371;49.042;8.002;2022-08-03T05:39:22;3.20;;;2.90;;
20423;SDS011;10371;49.042;8.002;2022-08-03T05:40:22;3.08;;;2.70;;
20423;SDS011;10371;49.042;8.002;2022-08-03T05:41:23;2.95;;;2.75;;
20423;SDS011;10371;49.042;8.002;2022-08-03T05:42:24;4.72;;;2.60;;
20423;SDS011;10371;49.042;8.002;2022-08-03T05:43:24;4.43;;;2.67;;
20423;SDS011;10371;49.042;8.002;2022-08-03T05:44:24;4.47;;;2.88;;
20423;SDS011;10371;49.042;8.002;2022-08-03T05:45:25;3.10;;;2.80;;
20423;SDS011;10371;49.042;8.002;2022-08-03T05:46:25;3.40;;;2.60;;
20423;SDS011;10371;49.042;8.002;2022-08-03T05:47:25;2.50;;;2.30;;
20423;SDS011;10371;49.042;8.002;2022-08-03T05:48:25;2.63;;;2.42;;
20423;SDS011;10371;49.042;8.002;2022-08-03T05:49:26;2.65;;;2.45;;
20423;SDS011;10371;49.042;8.002;2022-08-03T05:50:26;2.47;;;2.28;;
20423;SDS011;10371;49.042;8.002;2022-08-03T05:51:27;2.63;;;2.42;;
20423;SDS011;10371;49.042;8.002;2022-08-03T05:52:27;3.97;;;2.58;;
20423;SDS011;10371;49.042;8.002;2022-08-03T05:53:28;6.07;;;2.30;;
20423;SDS011;10371;49.042;8.002;2022-08-03T05:54:32;3.10;;;2.58;;
20423;SDS011;10371;49.042;8.002;2022-08-03T05:55:32;5.35;;;2.55;;
20423;SDS011;10371;49.042;8.002;2022-08-03T05:56:33;3.25;;;2.58;;
20423;SDS011;10371;49.042;8.002;2022-08-03T05:57:33;2.95;;;2.40;;
20423;SDS011;10371;49.042;8.002;2022-08-03T05:58:34;3.20;;;2.53;;
20423;SDS011;10371;49.042;8.002;2022-08-03T05:59:36;2.47;;;2.28;;
20423;SDS011;10371;49.042;8.002;2022-08-03T06:00:37;2.75;;;2.30;;
20423;SDS011;10371;49.042;8.002;2022-08-03T06:01:38;2.60;;;2.40;;
20423;SDS011;10371;49.042;8.002;2022-08-03T06:02:38;2.65;;;2.42;;
20423;SDS011;10371;49.042;8.002;2022-08-03T06:03:39;4.93;;;2.40;;
20423;SDS011;10371;49.042;8.002;2022-08-03T06:04:39;2.50;;;2.30;;
20423;SDS011;10371;49.042;8.002;2022-08-03T06:05:39;2.55;;;2.35;;
20423;SDS011;10371;49.042;8.002;2022-08-03T06:06:40;2.75;;;2.55;;
20423;SDS011;10371;49.042;8.002;2022-08-03T06:07:41;3.50;;;2.30;;
20423;SDS011;10371;49.042;8.002;2022-08-03T06:08:41;2.13;;;2.00;;
20423;SDS011;10371;49.042;8.002;2022-08-03T06:09:42;2.67;;;2.30;;
20423;SDS011;10371;49.042;8.002;2022-08-03T06:10:43;4.05;;;2.20;;
20423;SDS011;10371;49.042;8.002;2022-08-03T06:11:43;5.70;;;2.88;;
20423;SDS011;10371;49.042;8.002;2022-08-03T06:12:43;5.05;;;3.00;;
20423;SDS011;10371;49.042;8.002;2022-08-03T06:13:46;6.78;;;2.95;;
20423;SDS011;10371;49.042;8.002;2022-08-03T06:14:47;5.65;;;3.00;;
20423;SDS011;10371;49.042;8.002;2022-08-03T06:15:47;9.27;;;3.42;;
20423;SDS011;10371;49.042;8.002;2022-08-03T06:16:47;7.00;;;3.03;;
20423;SDS011;10371;49.042;8.002;2022-08-03T06:17:48;7.65;;;2.80;;
20423;SDS011;10371;49.042;8.002;2022-08-03T06:18:49;2.53;;;2.33;;
20423;SDS011;10371;49.042;8.002;2022-08-03T06:19:50;3.28;;;2.25;;
20423;SDS011;10371;49.042;8.002;2022-08-03T06:20:52;6.18;;;2.80;;
20423;SDS011;10371;49.042;8.002;2022-08-03T06:21:53;4.47;;;2.78;;
20423;SDS011;10371;49.042;8.002;2022-08-03T06:22:53;3.13;;;2.45;;
20423;SDS011;10371;49.042;8.002;2022-08-03T06:23:54;10.30;;;3.53;;
20423;SDS011;10371;49.042;8.002;2022-08-03T06:24:54;3.42;;;2.50;;
20423;SDS011;10371;49.042;8.002;2022-08-03T06:25:54;2.60;;;2.40;;
20423;SDS011;10371;49.042;8.002;2022-08-03T06:26:56;4.00;;;2.65;;
20423;SDS011;10371;49.042;8.002;2022-08-03T06:27:56;4.57;;;2.67;;